createdAt,value
2018-06-18T00:00:41.882Z,18.55
2018-06-18T00:03:11.846Z,18.70
2018-06-18T00:05:41.482Z,18.70
2018-06-18T00:08:11.306Z,19.01
2018-06-18T00:10:41.090Z,18.95
2018-06-18T00:13:10.783Z,19.26
2018-06-18T00:15:40.534Z,19.21
2018-06-18T00:18:10.210Z,19.27
2018-06-18T00:20:39.982Z,19.48
2018-06-18T00:23:09.792Z,19.60
2018-06-18T00:25:39.504Z,19.64
2018-06-18T00:28:09.444Z,19.64
2018-06-18T00:30:39.193Z,19.37
2018-06-18T00:33:08.892Z,18.92
2018-06-18T00:35:38.601Z,19.30
2018-06-18T00:38:08.451Z,19.43
2018-06-18T00:40:38.120Z,19.53
2018-06-18T00:43:08.776Z,19.58
2018-06-18T00:45:38.792Z,19.56
2018-06-18T00:48:08.496Z,19.49
2018-06-18T00:50:38.216Z,19.19
2018-06-18T00:53:09.022Z,19.24
2018-06-18T00:55:49.360Z,19.46
2018-06-18T00:58:19.100Z,19.49
2018-06-18T01:00:49.013Z,19.51
2018-06-18T01:03:19.495Z,19.50
2018-06-18T01:05:49.786Z,19.49
2018-06-18T01:08:19.585Z,19.32
2018-06-18T01:10:49.453Z,19.23
2018-06-18T01:13:20.079Z,18.96
2018-06-18T01:15:49.933Z,18.94
2018-06-18T01:18:19.758Z,19.17
2018-06-18T01:20:49.476Z,18.45
2018-06-18T01:23:29.333Z,18.82
2018-06-18T01:25:59.102Z,19.06
2018-06-18T01:28:28.921Z,19.18
2018-06-18T01:30:58.623Z,18.56
2018-06-18T01:33:28.502Z,18.36
2018-06-18T01:35:58.269Z,18.68
2018-06-18T01:38:28.181Z,18.19
2018-06-18T01:40:58.094Z,18.62
2018-06-18T01:43:27.985Z,18.62
2018-06-18T01:45:58.532Z,18.73
2018-06-18T01:48:29.056Z,18.54
2018-06-18T01:50:59.588Z,18.75
2018-06-18T01:53:31.953Z,18.57
2018-06-18T01:56:02.798Z,18.65
2018-06-18T01:58:32.583Z,18.77
2018-06-18T02:01:03.167Z,18.97
2018-06-18T02:03:32.929Z,19.03
2018-06-18T02:06:02.665Z,18.89
2018-06-18T02:08:32.434Z,19.03
2018-06-18T02:11:02.215Z,18.96
2018-06-18T02:13:35.641Z,18.72
2018-06-18T02:16:05.457Z,18.34
2018-06-18T02:18:35.228Z,18.12
2018-06-18T02:21:04.980Z,18.49
2018-06-18T02:23:35.281Z,18.27
2018-06-18T02:26:04.912Z,18.34
2018-06-18T02:28:39.733Z,18.70
2018-06-18T02:31:14.577Z,17.90
2018-06-18T02:33:50.125Z,18.23
2018-06-18T02:36:24.903Z,18.39
2018-06-18T02:39:11.524Z,18.67
2018-06-18T02:41:41.830Z,18.57
2018-06-18T02:44:11.528Z,18.79
2018-06-18T02:46:41.633Z,18.85
2018-06-18T02:49:11.408Z,18.99
2018-06-18T02:51:41.132Z,18.73
2018-06-18T02:54:11.066Z,18.98
2018-06-18T02:56:51.547Z,18.58
2018-06-18T02:59:21.315Z,18.94
2018-06-18T03:01:52.340Z,18.99
2018-06-18T03:04:22.076Z,19.00
2018-06-18T03:06:51.752Z,18.72
2018-06-18T03:09:22.244Z,18.92
2018-06-18T03:11:53.126Z,19.05
2018-06-18T03:14:22.800Z,19.13
2018-06-18T03:16:52.520Z,18.46
2018-06-18T03:19:27.135Z,18.43
2018-06-18T03:22:02.472Z,18.44
2018-06-18T03:26:40.464Z,17.72
2018-06-18T03:29:15.931Z,17.29
2018-06-18T03:31:46.677Z,17.81
2018-06-18T03:34:16.518Z,17.78
2018-06-18T03:36:47.095Z,17.58
2018-06-18T03:39:16.925Z,17.74
2018-06-18T03:41:48.712Z,17.99
2018-06-18T03:44:39.679Z,18.41
2018-06-18T03:47:17.920Z,18.93
2018-06-18T03:49:47.624Z,19.11
2018-06-18T03:52:17.556Z,18.44
2018-06-18T03:54:47.374Z,18.26
2018-06-18T03:57:17.468Z,17.95
2018-06-18T03:59:47.121Z,16.47
2018-06-18T04:02:42.913Z,17.56
2018-06-18T04:05:17.669Z,17.71
2018-06-18T04:07:52.388Z,17.98
2018-06-18T04:10:27.104Z,17.75
2018-06-18T04:12:56.699Z,17.49
2018-06-18T04:15:26.406Z,17.64
2018-06-18T04:17:56.143Z,17.62
2018-06-18T04:20:28.153Z,18.09
2018-06-18T04:22:57.765Z,18.31
2018-06-18T04:25:27.534Z,18.18
2018-06-18T04:27:57.257Z,18.33
2018-06-18T04:30:28.333Z,18.87
2018-06-18T04:32:58.044Z,19.16
2018-06-18T04:35:27.846Z,18.79
2018-06-18T04:37:57.620Z,19.17
2018-06-18T04:40:28.432Z,19.31
2018-06-18T04:43:03.120Z,19.47
2018-06-18T04:45:37.885Z,19.72
2018-06-18T04:48:12.934Z,20.03
2018-06-18T04:50:49.582Z,20.24
2018-06-18T04:53:19.371Z,20.17
2018-06-18T04:55:49.467Z,19.77
2018-06-18T04:58:19.218Z,19.09
2018-06-18T05:01:32.780Z,19.33
2018-06-18T05:04:02.519Z,19.83
2018-06-18T05:06:32.912Z,19.68
2018-06-18T05:09:22.882Z,20.24
2018-06-18T05:11:52.626Z,19.71
2018-06-18T05:14:22.404Z,19.72
2018-06-18T05:16:52.243Z,19.72
2018-06-18T05:19:22.055Z,19.99
2018-06-18T05:21:51.853Z,20.20
2018-06-18T05:24:21.500Z,19.85
2018-06-18T05:26:53.597Z,20.05
2018-06-18T05:29:26.168Z,20.69
2018-06-18T05:31:55.692Z,20.75
2018-06-18T05:34:29.858Z,20.66
2018-06-18T05:37:01.904Z,21.12
2018-06-18T05:39:32.592Z,21.03
2018-06-18T05:42:02.383Z,20.67
2018-06-18T05:44:32.224Z,20.89
2018-06-18T05:47:01.977Z,21.19
2018-06-18T05:49:32.008Z,21.27
2018-06-18T05:52:01.696Z,21.56
2018-06-18T05:54:31.447Z,21.12
2018-06-18T05:57:01.301Z,21.72
2018-06-18T05:59:31.208Z,21.75
2018-06-18T06:02:00.872Z,21.42
2018-06-18T06:04:30.540Z,21.35
2018-06-18T06:07:00.260Z,21.90
2018-06-18T06:09:29.823Z,21.71
2018-06-18T06:11:59.501Z,21.93
2018-06-18T06:14:29.206Z,22.21
2018-06-18T06:16:58.932Z,22.57
2018-06-18T06:19:28.587Z,22.61
2018-06-18T06:21:58.467Z,22.35
2018-06-18T06:24:28.125Z,22.82
2018-06-18T06:26:57.991Z,23.20
2018-06-18T06:29:27.809Z,23.38
2018-06-18T06:31:57.645Z,23.41
2018-06-18T06:34:27.322Z,23.01
2018-06-18T06:36:57.055Z,23.21
2018-06-18T06:39:26.708Z,23.78
2018-06-18T06:42:02.309Z,24.83
2018-06-18T06:44:32.120Z,24.95
2018-06-18T06:47:01.886Z,25.15
2018-06-18T06:49:32.091Z,25.54
2018-06-18T06:52:02.071Z,25.09
2018-06-18T06:54:31.809Z,24.34
2018-06-18T06:57:01.419Z,24.51
2018-06-18T06:59:31.150Z,25.69
2018-06-18T07:02:00.851Z,26.00
2018-06-18T07:04:30.600Z,25.27
2018-06-18T07:07:00.241Z,26.02
2018-06-18T07:09:30.081Z,26.36
2018-06-18T07:11:59.748Z,25.87
2018-06-18T07:14:29.379Z,25.14
2018-06-18T07:16:59.147Z,25.64
2018-06-18T07:19:28.780Z,26.10
2018-06-18T07:21:58.316Z,26.68
2018-06-18T07:24:28.088Z,26.37
2018-06-18T07:26:57.832Z,26.52
2018-06-18T07:29:27.475Z,26.00
2018-06-18T07:31:57.212Z,26.14
2018-06-18T07:34:26.915Z,27.15
2018-06-18T07:36:56.525Z,27.11
2018-06-18T07:39:26.315Z,26.36
2018-06-18T07:41:56.024Z,26.58
2018-06-18T07:44:25.748Z,25.87
2018-06-18T07:46:55.155Z,25.97
2018-06-18T07:49:24.781Z,25.96
2018-06-18T07:51:54.444Z,26.92
2018-06-18T07:54:24.484Z,26.88
2018-06-18T07:56:54.316Z,25.57
2018-06-18T07:59:25.091Z,25.42
2018-06-18T08:01:54.837Z,25.82
2018-06-18T08:04:25.128Z,27.25
2018-06-18T08:06:54.780Z,27.71
2018-06-18T08:09:24.475Z,26.93
2018-06-18T08:11:54.142Z,28.13
2018-06-18T08:14:23.717Z,28.34
2018-06-18T08:16:53.487Z,29.43
2018-06-18T08:19:23.217Z,28.37
2018-06-18T08:21:53.061Z,29.06
2018-06-18T08:24:22.794Z,28.68
2018-06-18T08:26:52.625Z,28.20
2018-06-18T08:29:22.266Z,28.26
2018-06-18T08:31:51.944Z,28.44
2018-06-18T08:34:21.647Z,28.23
2018-06-18T08:36:51.313Z,28.32
2018-06-18T08:39:20.968Z,28.48
2018-06-18T08:41:50.770Z,28.85
2018-06-18T08:44:20.428Z,28.94
2018-06-18T08:46:49.993Z,29.48
2018-06-18T08:49:19.722Z,27.98
2018-06-18T08:51:54.725Z,28.11
2018-06-18T08:54:29.469Z,27.26
2018-06-18T08:57:04.478Z,26.88
2018-06-18T08:59:39.631Z,26.48
2018-06-18T09:02:09.389Z,26.00
2018-06-18T09:04:45.349Z,25.77
2018-06-18T09:07:18.269Z,24.81
2018-06-18T09:09:48.169Z,24.96
2018-06-18T09:12:17.879Z,25.29
2018-06-18T09:14:47.601Z,25.05
2018-06-18T09:17:17.396Z,25.88
2018-06-18T09:19:47.070Z,25.87
2018-06-18T09:22:16.785Z,25.77
2018-06-18T09:24:46.426Z,25.92
2018-06-18T09:27:16.041Z,25.96
2018-06-18T09:29:50.697Z,25.92
2018-06-18T09:32:20.516Z,25.72
2018-06-18T09:34:50.232Z,25.39
2018-06-18T09:37:19.992Z,25.59
2018-06-18T09:39:50.418Z,25.98
2018-06-18T09:42:20.160Z,26.17
2018-06-18T09:44:50.054Z,26.96
2018-06-18T09:47:19.639Z,27.81
2018-06-18T09:49:54.207Z,27.99
2018-06-18T09:52:28.971Z,28.73
2018-06-18T09:55:03.693Z,29.37
2018-06-18T09:57:38.762Z,29.83
2018-06-18T10:01:19.926Z,30.10
2018-06-18T10:03:49.586Z,30.77
2018-06-18T10:06:19.547Z,31.72
2018-06-18T10:08:49.245Z,32.25
2018-06-18T10:11:18.819Z,32.01
2018-06-18T10:13:48.484Z,32.27
2018-06-18T10:16:18.149Z,30.79
2018-06-18T10:18:47.884Z,31.52
2018-06-18T10:21:17.607Z,31.19
2018-06-18T10:23:47.329Z,31.70
2018-06-18T10:26:17.133Z,32.50
2018-06-18T10:28:46.812Z,32.62
2018-06-18T10:31:16.479Z,32.93
2018-06-18T10:33:51.270Z,31.40
2018-06-18T10:36:26.169Z,31.70
2018-06-18T10:39:01.992Z,30.71
2018-06-18T10:41:37.449Z,31.48
2018-06-18T10:44:08.058Z,31.36
2018-06-18T10:46:38.669Z,31.41
2018-06-18T10:49:09.406Z,30.64
2018-06-18T10:51:39.713Z,31.10
2018-06-18T10:54:10.289Z,31.32
2018-06-18T10:56:40.731Z,31.42
2018-06-18T10:59:12.089Z,30.40
2018-06-18T11:01:42.343Z,30.46
2018-06-18T11:04:17.470Z,31.51
2018-06-18T11:06:47.839Z,31.72
2018-06-18T11:09:18.197Z,32.38
2018-06-18T11:11:48.631Z,32.70
2018-06-18T11:14:19.298Z,32.84
2018-06-18T11:17:52.227Z,31.98
2018-06-18T11:20:26.853Z,30.37
2018-06-18T11:23:01.661Z,29.84
2018-06-18T11:25:36.613Z,29.45
2018-06-18T11:28:06.511Z,29.25
2018-06-18T11:30:36.281Z,28.53
2018-06-18T11:33:06.041Z,29.06
2018-06-18T11:35:36.494Z,29.34
2018-06-18T11:38:06.305Z,28.38
2018-06-18T11:40:36.084Z,28.42
2018-06-18T11:43:05.870Z,28.58
2018-06-18T11:45:35.663Z,28.27
2018-06-18T11:48:25.092Z,28.39
2018-06-18T11:50:54.767Z,28.70
2018-06-18T11:53:24.541Z,28.98
2018-06-18T11:55:55.023Z,29.17
2018-06-18T11:58:29.924Z,28.79
2018-06-18T12:01:05.294Z,28.19
2018-06-18T12:03:39.927Z,28.13
2018-06-18T12:06:14.663Z,27.15
2018-06-18T12:08:49.291Z,27.67
2018-06-18T12:11:19.085Z,28.05
2018-06-18T12:13:48.825Z,28.18
2018-06-18T12:16:18.952Z,27.37
2018-06-18T12:18:48.564Z,27.23
2018-06-18T12:21:18.142Z,27.71
2018-06-18T12:23:57.037Z,28.41
2018-06-18T12:26:33.736Z,29.29
2018-06-18T12:29:07.101Z,29.01
2018-06-18T12:31:36.826Z,29.09
2018-06-18T12:34:06.570Z,30.12
2018-06-18T12:36:36.553Z,31.18
2018-06-18T12:39:09.353Z,29.70
2018-06-18T12:41:41.111Z,30.00
2018-06-18T12:44:10.945Z,29.97
2018-06-18T12:46:46.808Z,29.77
2018-06-18T12:49:21.591Z,30.58
2018-06-18T12:51:56.538Z,30.57
2018-06-18T12:54:31.449Z,30.27
2018-06-18T12:57:05.501Z,29.90
2018-06-18T12:59:35.207Z,31.17
2018-06-18T13:02:24.923Z,29.57
2018-06-18T13:04:58.534Z,30.39
2018-06-18T13:07:28.267Z,29.68
2018-06-18T13:09:58.865Z,29.67
2018-06-18T13:12:29.409Z,28.14
2018-06-18T13:14:59.652Z,28.91
2018-06-18T13:17:29.404Z,28.16
2018-06-18T13:19:58.976Z,27.96
2018-06-18T13:22:28.674Z,26.86
2018-06-18T13:24:58.240Z,26.44
2018-06-18T13:27:33.026Z,26.27
2018-06-18T13:30:02.805Z,26.08
2018-06-18T13:32:32.623Z,25.81
2018-06-18T13:35:03.342Z,25.79
2018-06-18T13:37:38.137Z,25.44
2018-06-18T13:40:12.995Z,25.88
2018-06-18T13:42:47.745Z,26.12
2018-06-18T13:45:22.584Z,26.05
2018-06-18T13:47:57.458Z,26.11
2018-06-18T13:50:27.297Z,26.03
2018-06-18T13:52:57.085Z,26.88
2018-06-18T13:55:27.917Z,27.49
2018-06-18T13:57:57.577Z,27.10
2018-06-18T14:00:27.368Z,27.30
2018-06-18T14:02:57.456Z,27.14
2018-06-18T14:05:28.627Z,27.07
2018-06-18T14:07:58.411Z,26.40
2018-06-18T14:10:28.082Z,26.68
2018-06-18T14:12:57.837Z,26.87
2018-06-18T14:15:28.300Z,27.07
2018-06-18T14:17:57.859Z,27.47
2018-06-18T14:20:28.245Z,27.50
2018-06-18T14:22:57.895Z,27.84
2018-06-18T14:25:27.756Z,26.83
2018-06-18T14:27:57.484Z,27.49
2018-06-18T14:30:32.701Z,27.18
2018-06-18T14:33:07.488Z,27.24
2018-06-18T14:35:42.784Z,26.73
2018-06-18T14:38:17.621Z,26.81
2018-06-18T14:40:47.302Z,27.29
2018-06-18T14:43:17.040Z,26.56
2018-06-18T14:45:47.181Z,26.70
2018-06-18T14:48:16.910Z,26.59
2018-06-18T14:50:46.712Z,26.75
2018-06-18T14:53:16.377Z,26.71
2018-06-18T14:55:49.103Z,26.37
2018-06-18T14:58:18.842Z,25.44
2018-06-18T15:00:48.472Z,25.62
2018-06-18T15:03:18.551Z,25.39
2018-06-18T15:05:48.467Z,25.67
2018-06-18T15:08:18.250Z,25.31
2018-06-18T15:10:55.600Z,25.91
2018-06-18T15:13:25.284Z,25.71
2018-06-18T15:16:00.672Z,25.73
2018-06-18T15:18:30.395Z,25.07
2018-06-18T15:21:02.725Z,24.85
2018-06-18T15:23:32.284Z,24.70
2018-06-18T15:26:02.098Z,24.77
2018-06-18T15:28:31.765Z,25.08
2018-06-18T15:31:01.425Z,25.18
2018-06-18T15:33:31.098Z,24.81
2018-06-18T15:36:00.706Z,25.12
2018-06-18T15:38:30.312Z,24.51
2018-06-18T15:41:00.037Z,24.41
2018-06-18T15:43:29.811Z,24.74
2018-06-18T15:45:59.469Z,25.15
2018-06-18T15:48:29.084Z,24.61
2018-06-18T15:50:58.924Z,24.70
2018-06-18T15:53:28.511Z,24.40
2018-06-18T15:55:58.247Z,24.00
2018-06-18T15:58:27.826Z,24.20
2018-06-18T16:00:57.542Z,23.96
2018-06-18T16:03:27.254Z,24.16
2018-06-18T16:05:57.049Z,24.49
2018-06-18T16:08:26.739Z,24.56
2018-06-18T16:10:56.440Z,24.73
2018-06-18T16:13:26.088Z,24.61
2018-06-18T16:15:55.836Z,24.03
2018-06-18T16:18:25.543Z,24.55
2018-06-18T16:20:55.214Z,24.76
2018-06-18T16:23:24.905Z,24.46
2018-06-18T16:25:54.705Z,24.30
2018-06-18T16:28:24.445Z,24.42
2018-06-18T16:30:54.103Z,24.35
2018-06-18T16:33:23.778Z,24.08
2018-06-18T16:35:53.468Z,24.32
2018-06-18T16:38:23.190Z,24.11
2018-06-18T16:40:52.912Z,23.94
2018-06-18T16:43:22.729Z,24.03
2018-06-18T16:45:52.420Z,23.97
2018-06-18T16:48:22.177Z,23.88
2018-06-18T16:50:51.880Z,24.20
2018-06-18T16:53:21.438Z,24.28
2018-06-18T16:55:51.187Z,24.23
2018-06-18T16:58:20.856Z,24.43
2018-06-18T17:00:50.590Z,24.25
2018-06-18T17:03:20.348Z,24.11
2018-06-18T17:05:50.557Z,23.92
2018-06-18T17:08:20.294Z,24.37
2018-06-18T17:10:49.903Z,24.45
2018-06-18T17:13:19.629Z,24.56
2018-06-18T17:15:49.495Z,24.65
2018-06-18T17:18:19.112Z,24.74
2018-06-18T17:20:48.796Z,24.60
2018-06-18T17:23:18.646Z,24.64
2018-06-18T17:25:48.389Z,24.24
2018-06-18T17:28:18.154Z,23.98
2018-06-18T17:30:48.037Z,23.56
2018-06-18T17:33:17.716Z,23.74
2018-06-18T17:35:47.393Z,23.70
2018-06-18T17:38:17.058Z,23.57
2018-06-18T17:40:46.781Z,23.13
2018-06-18T17:43:16.530Z,22.45
2018-06-18T17:45:46.287Z,21.74
2018-06-18T17:48:16.275Z,21.59
2018-06-18T17:50:45.724Z,20.94
2018-06-18T17:53:15.405Z,21.27
2018-06-18T17:55:45.124Z,21.47
2018-06-18T17:58:14.809Z,21.87
2018-06-18T18:00:44.607Z,21.92
2018-06-18T18:03:14.212Z,21.86
2018-06-18T18:05:43.934Z,21.68
2018-06-18T18:08:14.129Z,21.72
2018-06-18T18:10:43.938Z,20.89
2018-06-18T18:13:13.788Z,20.36
2018-06-18T18:15:43.547Z,20.54
2018-06-18T18:18:13.278Z,20.44
2018-06-18T18:20:43.136Z,20.27
2018-06-18T18:23:12.808Z,20.36
2018-06-18T18:25:42.652Z,20.79
2018-06-18T18:28:12.337Z,20.70
2018-06-18T18:30:42.070Z,20.36
2018-06-18T18:33:11.710Z,20.46
2018-06-18T18:35:41.392Z,20.61
2018-06-18T18:38:11.074Z,20.32
2018-06-18T18:40:40.816Z,20.14
2018-06-18T18:43:10.669Z,20.21
2018-06-18T18:45:40.313Z,20.21
2018-06-18T18:48:10.030Z,20.06
2018-06-18T18:50:39.867Z,20.09
2018-06-18T18:53:09.613Z,20.02
2018-06-18T18:55:51.484Z,20.34
2018-06-18T18:59:37.919Z,21.03
2018-06-18T19:02:07.928Z,20.54
2018-06-18T19:04:56.615Z,20.36
2018-06-18T19:07:34.094Z,20.68
2018-06-18T19:10:38.848Z,21.09
2018-06-18T19:13:17.304Z,21.07
2018-06-18T19:15:47.321Z,21.33
2018-06-18T19:18:16.977Z,21.27
2018-06-18T19:20:51.234Z,21.09
2018-06-18T19:23:22.102Z,20.88
2018-06-18T19:25:51.832Z,21.20
2018-06-18T19:28:21.665Z,21.26
2018-06-18T19:30:54.752Z,21.59
2018-06-18T19:33:30.130Z,21.22
2018-06-18T19:35:59.649Z,21.25
2018-06-18T19:38:29.443Z,21.28
2018-06-18T19:40:59.165Z,21.46
2018-06-18T19:43:29.725Z,21.58
2018-06-18T19:46:01.951Z,21.63
2018-06-18T19:48:38.170Z,21.38
2018-06-18T19:51:08.181Z,20.99
2018-06-18T19:53:38.088Z,21.45
2018-06-18T19:56:07.998Z,21.59
2018-06-18T19:58:37.560Z,21.67
2018-06-18T20:01:08.929Z,21.09
2018-06-18T20:03:39.149Z,20.88
2018-06-18T20:06:08.958Z,20.53
2018-06-18T20:08:38.705Z,20.59
2018-06-18T20:11:08.503Z,20.83
2018-06-18T20:13:38.196Z,20.88
2018-06-18T20:16:08.059Z,20.56
2018-06-18T20:18:38.788Z,20.59
2018-06-18T20:21:08.531Z,20.51
2018-06-18T20:23:38.162Z,20.22
2018-06-18T20:26:12.116Z,19.54
2018-06-18T20:28:41.808Z,20.04
2018-06-18T20:31:11.566Z,19.67
2018-06-18T20:33:45.152Z,19.33
2018-06-18T20:36:16.553Z,19.38
2018-06-18T20:38:46.134Z,19.66
2018-06-18T20:41:15.802Z,19.59
2018-06-18T20:44:03.789Z,19.49
2018-06-18T20:46:33.512Z,19.36
2018-06-18T20:49:03.220Z,19.19
2018-06-18T20:51:32.952Z,19.26
2018-06-18T20:54:03.957Z,19.22
2018-06-18T20:56:33.724Z,18.99
2018-06-18T20:59:03.792Z,18.87
2018-06-18T21:01:33.516Z,18.81
2018-06-18T21:04:03.730Z,18.81
2018-06-18T21:06:33.479Z,18.99
2018-06-18T21:09:03.428Z,18.90
2018-06-18T21:11:33.569Z,19.14
2018-06-18T21:14:03.385Z,18.85
2018-06-18T21:16:33.196Z,18.98
2018-06-18T21:19:02.761Z,18.66
2018-06-18T21:21:32.435Z,18.47
2018-06-18T21:24:02.135Z,19.01
2018-06-18T21:26:31.914Z,18.99
2018-06-18T21:29:01.543Z,19.34
2018-06-18T21:31:31.279Z,19.50
2018-06-18T21:34:00.878Z,18.75
2018-06-18T21:36:30.568Z,18.68
2018-06-18T21:39:00.285Z,18.36
2018-06-18T21:41:30.020Z,18.36
2018-06-18T21:43:59.785Z,18.29
2018-06-18T21:46:29.523Z,18.17
2018-06-18T21:48:59.107Z,18.11
2018-06-18T21:51:28.772Z,16.66
2018-06-18T21:53:58.567Z,18.68
2018-06-18T21:56:28.340Z,18.99
2018-06-18T21:58:58.128Z,18.71
2018-06-18T22:01:38.089Z,18.70
2018-06-18T22:04:08.314Z,17.25
2018-06-18T22:06:38.432Z,18.78
2018-06-18T22:09:12.939Z,19.26
2018-06-18T22:11:44.171Z,19.19
2018-06-18T22:14:14.583Z,18.71
2018-06-18T22:16:44.246Z,18.64
2018-06-18T22:19:14.012Z,18.26
2018-06-18T22:21:43.690Z,18.03
2018-06-18T22:24:13.386Z,17.96
2018-06-18T22:26:43.142Z,18.01
2018-06-18T22:29:13.286Z,18.21
2018-06-18T22:31:42.984Z,18.54
2018-06-18T22:34:12.762Z,18.17
2018-06-18T22:36:42.599Z,18.17
2018-06-18T22:39:13.412Z,18.11
2018-06-18T22:41:43.152Z,18.11
2018-06-18T22:44:13.518Z,18.16
2018-06-18T22:46:43.228Z,18.15
2018-06-18T22:49:12.883Z,18.56
2018-06-18T22:51:42.690Z,18.45
2018-06-18T22:54:12.468Z,18.32
2018-06-18T22:56:42.024Z,18.25
2018-06-18T22:59:11.720Z,18.33
2018-06-18T23:01:41.459Z,18.29
2018-06-18T23:04:11.276Z,18.25
2018-06-18T23:06:41.185Z,18.22
2018-06-18T23:09:12.125Z,18.46
2018-06-18T23:11:41.927Z,18.47
2018-06-18T23:14:16.130Z,18.12
2018-06-18T23:16:46.010Z,18.33
2018-06-18T23:19:15.720Z,18.31
2018-06-18T23:21:45.403Z,18.55
2018-06-18T23:24:15.864Z,18.87
2018-06-18T23:26:45.561Z,18.46
2018-06-18T23:29:17.036Z,18.21
2018-06-18T23:31:46.832Z,18.32
2018-06-18T23:34:16.568Z,18.57
2018-06-18T23:36:46.220Z,18.45
2018-06-18T23:39:15.952Z,18.67
2018-06-18T23:41:49.908Z,18.35
2018-06-18T23:44:19.699Z,18.35
2018-06-18T23:46:49.613Z,18.31
2018-06-18T23:49:19.196Z,18.27
2018-06-18T23:51:49.106Z,18.27
2018-06-18T23:54:18.800Z,18.11
2018-06-18T23:56:48.556Z,18.06
2018-06-18T23:59:18.292Z,18.14
